createdAt,value
2018-09-28T00:00:58.915Z,84.22
2018-09-28T00:01:58.947Z,84.46
2018-09-28T00:02:58.966Z,84.22
2018-09-28T00:03:58.963Z,84.41
2018-09-28T00:04:58.975Z,84.03
2018-09-28T00:05:58.997Z,84.03
2018-09-28T00:06:59.009Z,83.89
2018-09-28T00:07:59.030Z,84.27
2018-09-28T00:08:59.098Z,84.65
2018-09-28T00:09:59.059Z,84.36
2018-09-28T00:10:59.080Z,85.13
2018-09-28T00:11:59.090Z,84.65
2018-09-28T00:12:59.111Z,85.22
2018-09-28T00:13:59.130Z,84.56
2018-09-28T00:14:59.157Z,84.75
2018-09-28T00:15:59.175Z,84.75
2018-09-28T00:16:59.183Z,84.46
2018-09-28T00:17:59.198Z,84.46
2018-09-28T00:18:59.207Z,84.65
2018-09-28T00:19:59.227Z,84.46
2018-09-28T00:20:59.242Z,84.27
2018-09-28T00:21:59.258Z,84.27
2018-09-28T00:22:59.270Z,84.46
2018-09-28T00:23:59.292Z,84.46
2018-09-28T00:24:59.316Z,86.18
2018-09-28T00:25:59.378Z,86.27
2018-09-28T00:26:59.354Z,86.08
2018-09-28T00:27:59.355Z,86.18
2018-09-28T00:28:59.366Z,85.80
2018-09-28T00:29:59.399Z,85.41
2018-09-28T00:30:59.426Z,85.13
2018-09-28T00:31:59.420Z,85.13
2018-09-28T00:32:59.431Z,85.32
2018-09-28T00:33:59.454Z,85.60
2018-09-28T00:34:59.467Z,85.51
2018-09-28T00:35:59.560Z,85.94
2018-09-28T00:36:59.498Z,87.37
2018-09-28T00:37:59.523Z,88.13
2018-09-28T00:38:59.536Z,89.18
2018-09-28T00:39:59.623Z,88.70
2018-09-28T00:40:59.589Z,90.08
2018-09-28T00:41:59.642Z,90.03
2018-09-28T00:42:59.603Z,89.94
2018-09-28T00:43:59.661Z,88.70
2018-09-28T00:44:59.700Z,88.13
2018-09-28T00:45:59.753Z,89.04
2018-09-28T00:46:59.672Z,89.23
2018-09-28T00:47:59.687Z,89.32
2018-09-28T00:48:59.699Z,89.70
2018-09-28T00:49:59.705Z,89.37
2018-09-28T00:50:59.733Z,88.70
2018-09-28T00:51:59.764Z,88.79
2018-09-28T00:52:59.780Z,89.47
2018-09-28T00:53:59.825Z,88.51
2018-09-28T00:54:59.792Z,87.85
2018-09-28T00:55:59.808Z,86.80
2018-09-28T00:56:59.844Z,86.61
2018-09-28T00:57:59.853Z,86.80
2018-09-28T00:58:59.859Z,87.56
2018-09-28T00:59:59.889Z,87.85
2018-09-28T01:00:59.888Z,87.94
2018-09-28T01:01:59.902Z,88.51
2018-09-28T01:02:59.941Z,88.56
2018-09-28T01:03:59.933Z,88.60
2018-09-28T01:04:59.953Z,88.60
2018-09-28T01:06:00.006Z,87.65
2018-09-28T01:06:59.987Z,87.37
2018-09-28T01:08:00.004Z,86.61
2018-09-28T01:09:00.021Z,86.51
2018-09-28T01:10:00.035Z,87.37
2018-09-28T01:11:00.056Z,88.42
2018-09-28T01:12:00.069Z,89.14
2018-09-28T01:13:00.094Z,88.42
2018-09-28T01:14:00.104Z,87.56
2018-09-28T01:15:00.113Z,87.27
2018-09-28T01:16:00.128Z,86.90
2018-09-28T01:17:00.148Z,87.08
2018-09-28T01:18:00.167Z,88.60
2018-09-28T01:19:00.181Z,88.04
2018-09-28T01:20:00.194Z,87.94
2018-09-28T01:21:00.293Z,87.56
2018-09-28T01:22:00.229Z,87.75
2018-09-28T01:23:00.244Z,86.90
2018-09-28T01:24:00.261Z,86.22
2018-09-28T01:25:00.285Z,85.66
2018-09-28T01:26:00.291Z,86.18
2018-09-28T01:27:00.312Z,86.22
2018-09-28T01:28:00.328Z,86.18
2018-09-28T01:29:00.344Z,86.22
2018-09-28T01:30:00.361Z,86.51
2018-09-28T01:31:00.369Z,86.22
2018-09-28T01:32:00.392Z,85.75
2018-09-28T01:33:00.403Z,86.08
2018-09-28T01:34:00.435Z,86.61
2018-09-28T01:35:00.436Z,87.27
2018-09-28T01:36:00.459Z,87.46
2018-09-28T01:37:00.468Z,87.08
2018-09-28T01:38:00.484Z,87.37
2018-09-28T01:39:00.505Z,87.27
2018-09-28T01:40:00.517Z,87.18
2018-09-28T01:41:00.537Z,87.75
2018-09-28T01:42:00.547Z,87.75
2018-09-28T01:43:00.564Z,87.85
2018-09-28T01:44:00.590Z,87.75
2018-09-28T01:45:00.595Z,87.94
2018-09-28T01:46:00.626Z,88.13
2018-09-28T01:47:00.640Z,87.85
2018-09-28T01:48:00.659Z,87.75
2018-09-28T01:49:00.661Z,87.37
2018-09-28T01:50:00.679Z,87.27
2018-09-28T01:51:00.700Z,87.71
2018-09-28T01:52:00.709Z,88.85
2018-09-28T01:53:00.725Z,88.56
2018-09-28T01:54:00.758Z,88.75
2018-09-28T01:55:00.764Z,89.51
2018-09-28T01:56:00.773Z,88.28
2018-09-28T01:57:00.797Z,88.66
2018-09-28T01:58:00.817Z,89.14
2018-09-28T01:59:00.832Z,90.94
2018-09-28T02:00:00.856Z,90.66
2018-09-28T02:01:00.856Z,89.70
2018-09-28T02:02:00.878Z,88.85
2018-09-28T02:03:00.892Z,88.46
2018-09-28T02:04:00.917Z,88.75
2018-09-28T02:05:00.926Z,88.75
2018-09-28T02:06:00.935Z,89.32
2018-09-28T02:07:00.954Z,90.42
2018-09-28T02:08:00.972Z,91.32
2018-09-28T02:09:00.983Z,90.99
2018-09-28T02:10:01.001Z,90.66
2018-09-28T02:11:01.023Z,90.47
2018-09-28T02:12:01.042Z,90.89
2018-09-28T02:13:01.047Z,90.89
2018-09-28T02:14:01.071Z,89.61
2018-09-28T02:15:01.151Z,89.99
2018-09-28T02:16:01.093Z,90.84
2018-09-28T02:17:01.114Z,90.66
2018-09-28T02:18:01.129Z,89.99
2018-09-28T02:19:01.145Z,89.80
2018-09-28T02:20:01.160Z,89.70
2018-09-28T02:21:01.181Z,89.42
2018-09-28T02:22:01.195Z,89.23
2018-09-28T02:23:01.211Z,89.56
2018-09-28T02:24:01.259Z,90.23
2018-09-28T02:25:01.244Z,90.08
2018-09-28T02:26:01.260Z,89.80
2018-09-28T02:27:01.283Z,89.99
2018-09-28T02:28:01.288Z,89.32
2018-09-28T02:29:01.306Z,90.23
2018-09-28T02:30:01.333Z,90.61
2018-09-28T02:31:01.335Z,90.99
2018-09-28T02:32:01.348Z,91.18
2018-09-28T02:33:01.392Z,91.18
2018-09-28T02:34:01.393Z,90.42
2018-09-28T02:35:01.394Z,90.42
2018-09-28T02:36:01.415Z,90.61
2018-09-28T02:37:01.445Z,90.70
2018-09-28T02:38:01.454Z,89.94
2018-09-28T02:39:01.468Z,90.14
2018-09-28T02:40:01.498Z,89.61
2018-09-28T02:41:01.555Z,89.51
2018-09-28T02:42:01.505Z,88.85
2018-09-28T02:43:01.537Z,89.42
2018-09-28T02:44:01.543Z,89.42
2018-09-28T02:45:01.555Z,88.85
2018-09-28T02:46:01.583Z,88.28
2018-09-28T02:47:01.597Z,88.37
2018-09-28T02:48:01.613Z,89.66
2018-09-28T02:49:01.620Z,92.22
2018-09-28T02:50:01.636Z,92.51
2018-09-28T02:51:01.676Z,90.99
2018-09-28T02:52:01.675Z,91.37
2018-09-28T02:53:01.700Z,92.66
2018-09-28T02:54:01.700Z,92.66
2018-09-28T02:55:01.716Z,92.80
2018-09-28T02:56:01.731Z,91.94
2018-09-28T02:57:01.815Z,91.08
2018-09-28T02:58:01.762Z,90.61
2018-09-28T02:59:01.785Z,89.99
2018-09-28T03:00:01.810Z,89.42
2018-09-28T03:01:01.809Z,89.23
2018-09-28T03:02:01.828Z,89.04
2018-09-28T03:03:01.841Z,88.85
2018-09-28T03:04:01.859Z,88.37
2018-09-28T03:05:01.879Z,87.52
2018-09-28T03:06:01.902Z,87.99
2018-09-28T03:07:01.912Z,87.80
2018-09-28T03:08:01.925Z,87.99
2018-09-28T03:09:01.937Z,87.23
2018-09-28T03:10:01.994Z,87.94
2018-09-28T03:11:01.964Z,87.61
2018-09-28T03:12:01.999Z,87.85
2018-09-28T03:13:02.013Z,87.71
2018-09-28T03:14:02.016Z,88.37
2018-09-28T03:15:02.033Z,88.75
2018-09-28T03:16:02.068Z,88.66
2018-09-28T03:17:02.064Z,88.94
2018-09-28T03:18:02.083Z,88.56
2018-09-28T03:19:02.099Z,88.56
2018-09-28T03:20:02.114Z,88.56
2018-09-28T03:21:02.131Z,88.75
2018-09-28T03:22:02.144Z,89.04
2018-09-28T03:23:02.163Z,89.66
2018-09-28T03:24:02.183Z,90.42
2018-09-28T03:25:02.200Z,90.61
2018-09-28T03:26:02.255Z,90.99
2018-09-28T03:27:02.235Z,91.75
2018-09-28T03:28:02.243Z,92.13
2018-09-28T03:29:02.255Z,91.85
2018-09-28T03:30:02.283Z,91.28
2018-09-28T03:31:02.299Z,91.85
2018-09-28T03:32:02.313Z,92.13
2018-09-28T03:33:02.317Z,92.41
2018-09-28T03:34:02.339Z,93.13
2018-09-28T03:35:02.352Z,92.80
2018-09-28T03:36:02.367Z,92.03
2018-09-28T03:37:02.382Z,91.18
2018-09-28T03:38:02.421Z,90.61
2018-09-28T03:39:02.416Z,89.94
2018-09-28T03:40:02.444Z,89.28
2018-09-28T03:41:02.445Z,89.42
2018-09-28T03:42:02.461Z,89.32
2018-09-28T03:43:02.476Z,88.94
2018-09-28T03:44:02.504Z,88.56
2018-09-28T03:45:02.520Z,88.75
2018-09-28T03:46:02.532Z,88.66
2018-09-28T03:47:02.540Z,88.85
2018-09-28T03:48:02.567Z,89.42
2018-09-28T03:49:02.582Z,89.04
2018-09-28T03:50:02.601Z,88.56
2018-09-28T03:51:02.601Z,88.37
2018-09-28T03:52:02.625Z,89.51
2018-09-28T03:53:02.640Z,89.70
2018-09-28T03:54:02.650Z,90.18
2018-09-28T03:55:02.671Z,90.61
2018-09-28T03:56:02.683Z,90.99
2018-09-28T03:57:02.699Z,92.22
2018-09-28T03:58:02.720Z,92.51
2018-09-28T03:59:02.732Z,93.08
2018-09-28T04:00:02.768Z,93.55
2018-09-28T04:01:02.760Z,93.55
2018-09-28T04:02:02.786Z,92.13
2018-09-28T04:03:02.842Z,91.32
2018-09-28T04:04:02.812Z,90.66
2018-09-28T04:05:02.823Z,89.51
2018-09-28T04:06:02.845Z,89.42
2018-09-28T04:07:02.874Z,89.32
2018-09-28T04:08:02.887Z,89.23
2018-09-28T04:09:02.887Z,89.23
2018-09-28T04:10:02.904Z,89.18
2018-09-28T04:11:02.918Z,88.60
2018-09-28T04:12:02.936Z,89.08
2018-09-28T04:13:02.953Z,88.70
2018-09-28T04:14:02.984Z,89.65
2018-09-28T04:15:03.019Z,89.61
2018-09-28T04:16:03.003Z,89.99
2018-09-28T04:17:03.018Z,89.37
2018-09-28T04:18:03.031Z,89.27
2018-09-28T04:19:03.059Z,89.37
2018-09-28T04:20:03.065Z,89.84
2018-09-28T04:21:03.088Z,89.18
2018-09-28T04:22:03.198Z,89.47
2018-09-28T04:23:03.133Z,90.89
2018-09-28T04:24:03.130Z,91.80
2018-09-28T04:25:03.145Z,91.08
2018-09-28T04:26:03.168Z,90.70
2018-09-28T04:27:03.175Z,90.99
2018-09-28T04:28:03.210Z,90.61
2018-09-28T04:29:03.204Z,90.08
2018-09-28T04:30:03.226Z,89.47
2018-09-28T04:31:03.244Z,89.51
2018-09-28T04:32:03.259Z,89.41
2018-09-28T04:33:03.273Z,89.03
2018-09-28T04:34:03.309Z,89.03
2018-09-28T04:35:03.314Z,89.79
2018-09-28T04:36:03.324Z,90.17
2018-09-28T04:37:03.342Z,89.89
2018-09-28T04:38:03.351Z,88.65
2018-09-28T04:39:03.377Z,88.65
2018-09-28T04:40:03.387Z,89.32
2018-09-28T04:41:03.438Z,89.32
2018-09-28T04:42:03.424Z,89.70
2018-09-28T04:43:03.431Z,89.32
2018-09-28T04:44:03.463Z,88.75
2018-09-28T04:45:03.495Z,88.75
2018-09-28T04:46:03.481Z,88.18
2018-09-28T04:47:03.530Z,87.70
2018-09-28T04:48:03.515Z,87.65
2018-09-28T04:49:03.532Z,87.84
2018-09-28T04:50:03.550Z,88.22
2018-09-28T04:51:03.573Z,87.55
2018-09-28T04:52:03.581Z,88.89
2018-09-28T04:53:03.596Z,89.61
2018-09-28T04:54:03.612Z,90.27
2018-09-28T04:55:03.629Z,90.84
2018-09-28T04:56:03.647Z,90.94
2018-09-28T04:57:03.663Z,91.31
2018-09-28T04:58:03.683Z,91.31
2018-09-28T04:59:03.703Z,90.98
2018-09-28T05:00:03.731Z,90.94
2018-09-28T05:01:03.743Z,91.08
2018-09-28T05:02:03.749Z,90.56
2018-09-28T05:03:03.775Z,90.31
2018-09-28T05:04:03.792Z,90.75
2018-09-28T05:05:03.799Z,91.17
2018-09-28T05:06:03.828Z,90.98
2018-09-28T05:07:03.834Z,91.41
2018-09-28T05:08:03.856Z,91.60
2018-09-28T05:09:03.870Z,91.46
2018-09-28T05:10:03.882Z,90.79
2018-09-28T05:11:03.896Z,90.41
2018-09-28T05:12:03.921Z,89.94
2018-09-28T05:13:04.019Z,90.70
2018-09-28T05:14:03.979Z,90.70
2018-09-28T05:15:03.961Z,90.22
2018-09-28T05:16:03.991Z,88.74
2018-09-28T05:17:03.995Z,88.07
2018-09-28T05:18:04.012Z,86.65
2018-09-28T05:19:04.029Z,86.74
2018-09-28T05:20:04.064Z,86.83
2018-09-28T05:21:04.057Z,86.65
2018-09-28T05:22:04.084Z,86.65
2018-09-28T05:23:04.097Z,86.65
2018-09-28T05:24:04.110Z,85.31
2018-09-28T05:25:04.135Z,85.97
2018-09-28T05:26:04.144Z,85.73
2018-09-28T05:27:04.164Z,85.45
2018-09-28T05:28:04.191Z,85.54
2018-09-28T05:29:04.200Z,84.78
2018-09-28T05:30:04.231Z,84.69
2018-09-28T05:31:04.249Z,84.40
2018-09-28T05:32:04.368Z,84.30
2018-09-28T05:33:04.328Z,84.30
2018-09-28T05:34:04.281Z,84.30
2018-09-28T05:35:04.293Z,84.20
2018-09-28T05:36:04.314Z,84.11
2018-09-28T05:37:04.384Z,84.01
2018-09-28T05:38:04.351Z,84.16
2018-09-28T05:39:04.382Z,84.88
2018-09-28T05:40:04.383Z,85.25
2018-09-28T05:41:04.404Z,85.83
2018-09-28T05:42:04.409Z,86.49
2018-09-28T05:43:04.434Z,85.45
2018-09-28T05:44:04.447Z,85.45
2018-09-28T05:45:04.468Z,85.35
2018-09-28T05:46:04.481Z,85.45
2018-09-28T05:47:04.495Z,86.49
2018-09-28T05:48:04.512Z,88.78
2018-09-28T05:49:04.558Z,88.21
2018-09-28T05:50:04.551Z,87.93
2018-09-28T05:51:04.570Z,88.02
2018-09-28T05:52:04.584Z,87.93
2018-09-28T05:53:04.596Z,89.12
2018-09-28T05:54:04.671Z,89.83
2018-09-28T05:55:04.630Z,89.98
2018-09-28T05:56:04.662Z,91.22
2018-09-28T05:57:04.663Z,90.31
2018-09-28T05:58:04.702Z,89.64
2018-09-28T05:59:04.724Z,90.03
2018-09-28T06:00:04.748Z,89.98
2018-09-28T06:01:04.772Z,91.69
2018-09-28T06:02:04.763Z,91.88
2018-09-28T06:03:04.768Z,92.46
2018-09-28T06:04:04.786Z,91.98
2018-09-28T06:05:04.808Z,93.32
2018-09-28T06:06:04.813Z,92.84
2018-09-28T06:07:04.833Z,92.27
2018-09-28T06:08:04.852Z,91.31
2018-09-28T06:09:04.876Z,90.08
2018-09-28T06:10:04.887Z,88.59
2018-09-28T06:11:04.905Z,88.59
2018-09-28T06:12:04.934Z,88.21
2018-09-28T06:13:04.949Z,88.16
2018-09-28T06:14:04.955Z,87.83
2018-09-28T06:15:04.964Z,87.83
2018-09-28T06:16:04.995Z,87.49
2018-09-28T06:17:05.008Z,87.30
2018-09-28T06:18:05.084Z,86.25
2018-09-28T06:19:05.032Z,86.92
2018-09-28T06:20:05.056Z,86.54
2018-09-28T06:21:05.076Z,86.06
2018-09-28T06:22:05.090Z,85.97
2018-09-28T06:23:05.115Z,86.35
2018-09-28T06:24:05.132Z,85.97
2018-09-28T06:25:05.154Z,85.97
2018-09-28T06:26:05.158Z,85.72
2018-09-28T06:27:05.172Z,85.82
2018-09-28T06:28:05.185Z,86.73
2018-09-28T06:29:05.212Z,88.07
2018-09-28T06:30:05.258Z,90.59
2018-09-28T06:31:05.249Z,91.83
2018-09-28T06:32:05.257Z,91.83
2018-09-28T06:33:05.348Z,91.17
2018-09-28T06:34:05.288Z,91.55
2018-09-28T06:35:05.302Z,91.74
2018-09-28T06:36:05.403Z,92.22
2018-09-28T06:37:05.342Z,92.50
2018-09-28T06:38:05.351Z,91.74
2018-09-28T06:39:05.389Z,92.12
2018-09-28T06:40:05.391Z,92.22
2018-09-28T06:41:05.405Z,90.64
2018-09-28T06:42:05.491Z,89.50
2018-09-28T06:43:05.443Z,88.83
2018-09-28T06:44:05.460Z,87.97
2018-09-28T06:45:05.470Z,88.64
2018-09-28T06:46:05.495Z,88.16
2018-09-28T06:47:05.509Z,89.02
2018-09-28T06:48:05.595Z,89.17
2018-09-28T06:49:05.541Z,89.02
2018-09-28T06:50:05.574Z,90.31
2018-09-28T06:51:05.576Z,89.83
2018-09-28T06:52:05.591Z,91.07
2018-09-28T06:53:05.610Z,91.55
2018-09-28T06:54:05.692Z,91.93
2018-09-28T06:55:05.644Z,90.50
2018-09-28T06:56:05.675Z,91.17
2018-09-28T06:57:05.675Z,90.79
2018-09-28T06:58:05.714Z,89.83
2018-09-28T06:59:05.717Z,88.98
2018-09-28T07:00:05.772Z,88.35
2018-09-28T07:01:05.758Z,89.54
2018-09-28T07:02:05.772Z,89.59
2018-09-28T07:03:05.778Z,89.97
2018-09-28T07:04:05.901Z,90.07
2018-09-28T07:05:05.815Z,90.36
2018-09-28T07:06:05.862Z,89.50
2018-09-28T07:07:05.856Z,89.78
2018-09-28T07:08:05.872Z,90.03
2018-09-28T07:09:05.895Z,89.64
2018-09-28T07:10:05.893Z,88.98
2018-09-28T07:11:05.917Z,89.12
2018-09-28T07:12:06.000Z,88.26
2018-09-28T07:13:05.961Z,88.26
2018-09-28T07:14:05.966Z,89.31
2018-09-28T07:15:05.984Z,89.69
2018-09-28T07:16:06.009Z,90.02
2018-09-28T07:17:06.025Z,89.83
2018-09-28T07:18:06.088Z,90.55
2018-09-28T07:19:06.051Z,92.41
2018-09-28T07:20:06.093Z,94.98
2018-09-28T07:21:06.085Z,94.65
2018-09-28T07:22:06.104Z,94.27
2018-09-28T07:23:06.125Z,94.07
2018-09-28T07:24:06.170Z,95.51
2018-09-28T07:25:06.242Z,94.98
2018-09-28T07:26:06.178Z,93.36
2018-09-28T07:27:06.190Z,92.60
2018-09-28T07:28:06.205Z,93.26
2018-09-28T07:29:06.225Z,93.46
2018-09-28T07:30:06.270Z,91.97
2018-09-28T07:31:06.257Z,91.40
2018-09-28T07:32:06.269Z,91.40
2018-09-28T07:33:06.290Z,92.16
2018-09-28T07:34:06.318Z,93.93
2018-09-28T07:35:06.331Z,94.03
2018-09-28T07:36:06.492Z,94.79
2018-09-28T07:37:06.555Z,95.65
2018-09-28T07:38:06.383Z,96.42
2018-09-28T07:39:06.400Z,96.89
2018-09-28T07:40:06.408Z,96.70
2018-09-28T07:41:06.426Z,97.94
2018-09-28T07:42:06.481Z,97.85
2018-09-28T07:43:06.471Z,98.80
2018-09-28T07:44:06.477Z,99.18
2018-09-28T07:45:06.497Z,99.99
2018-09-28T07:46:06.512Z,99.18
2018-09-28T07:47:06.532Z,98.80
2018-09-28T07:48:06.589Z,99.37
2018-09-28T07:49:06.590Z,97.89
2018-09-28T07:50:06.595Z,97.32
2018-09-28T07:51:06.609Z,96.56
2018-09-28T07:52:06.614Z,95.65
2018-09-28T07:53:06.632Z,94.89
2018-09-28T07:54:06.654Z,94.70
2018-09-28T07:55:06.673Z,94.22
2018-09-28T07:56:06.682Z,93.02
2018-09-28T07:57:06.732Z,92.64
2018-09-28T07:58:06.723Z,93.41
2018-09-28T07:59:06.739Z,92.93
2018-09-28T08:00:06.761Z,93.26
2018-09-28T08:01:06.773Z,94.79
2018-09-28T08:02:06.786Z,94.60
2018-09-28T08:03:06.823Z,94.60
2018-09-28T08:04:06.821Z,93.74
2018-09-28T08:05:06.849Z,94.79
2018-09-28T08:06:06.861Z,95.41
2018-09-28T08:07:06.875Z,95.22
2018-09-28T08:08:06.889Z,95.32
2018-09-28T08:09:06.920Z,95.61
2018-09-28T08:10:06.933Z,95.70
2018-09-28T08:11:06.952Z,95.41
2018-09-28T08:12:06.962Z,95.41
2018-09-28T08:13:06.980Z,94.36
2018-09-28T08:14:06.997Z,93.45
2018-09-28T08:15:07.013Z,92.02
2018-09-28T08:16:07.032Z,92.88
2018-09-28T08:17:07.050Z,93.65
2018-09-28T08:18:07.075Z,93.88
2018-09-28T08:19:07.084Z,93.55
2018-09-28T08:20:07.098Z,94.27
2018-09-28T08:21:07.129Z,94.36
2018-09-28T08:22:07.132Z,94.74
2018-09-28T08:23:07.152Z,94.98
2018-09-28T08:24:07.168Z,93.84
2018-09-28T08:25:07.190Z,93.74
2018-09-28T08:26:07.233Z,94.12
2018-09-28T08:27:07.226Z,94.51
2018-09-28T08:28:07.244Z,93.93
2018-09-28T08:29:07.259Z,94.12
2018-09-28T08:30:07.295Z,92.93
2018-09-28T08:31:07.305Z,91.49
2018-09-28T08:32:07.307Z,92.16
2018-09-28T08:33:07.324Z,92.35
2018-09-28T08:34:07.362Z,91.30
2018-09-28T08:35:07.361Z,91.97
2018-09-28T08:36:07.391Z,91.16
2018-09-28T08:37:07.435Z,90.58
2018-09-28T08:38:07.419Z,90.20
2018-09-28T08:39:07.445Z,89.91
2018-09-28T08:40:07.453Z,92.16
2018-09-28T08:41:07.473Z,92.83
2018-09-28T08:42:07.489Z,92.88
2018-09-28T08:43:07.505Z,92.83
2018-09-28T08:44:07.522Z,93.69
2018-09-28T08:45:07.541Z,94.26
2018-09-28T08:46:07.570Z,94.17
2018-09-28T08:47:07.578Z,93.07
2018-09-28T08:48:07.594Z,90.82
2018-09-28T08:49:07.632Z,89.29
2018-09-28T08:50:07.629Z,87.76
2018-09-28T08:51:07.647Z,86.99
2018-09-28T08:52:07.683Z,86.04
2018-09-28T08:53:07.685Z,85.65
2018-09-28T08:54:07.704Z,85.50
2018-09-28T08:55:07.752Z,84.35
2018-09-28T08:56:07.743Z,83.72
2018-09-28T08:57:07.759Z,81.23
2018-09-28T08:58:07.788Z,80.66
2018-09-28T08:59:07.795Z,80.94
2018-09-28T09:00:07.809Z,80.94
2018-09-28T09:01:07.849Z,81.86
2018-09-28T09:02:07.854Z,82.48
2018-09-28T09:03:07.869Z,81.48
2018-09-28T09:04:07.889Z,80.85
2018-09-28T09:05:07.917Z,81.29
2018-09-28T09:06:07.921Z,80.24
2018-09-28T09:07:07.954Z,79.66
2018-09-28T09:08:07.959Z,80.52
2018-09-28T09:09:07.986Z,79.75
2018-09-28T09:10:08.011Z,80.71
2018-09-28T09:11:08.018Z,78.38
2018-09-28T09:12:08.032Z,79.58
2018-09-28T09:13:08.050Z,80.10
2018-09-28T09:14:08.088Z,79.62
2018-09-28T09:15:08.092Z,79.33
2018-09-28T09:16:08.110Z,79.52
2018-09-28T09:17:08.121Z,79.14
2018-09-28T09:18:08.230Z,79.18
2018-09-28T09:19:08.162Z,78.89
2018-09-28T09:20:08.182Z,76.79
2018-09-28T09:21:08.198Z,76.98
2018-09-28T09:22:08.218Z,75.93
2018-09-28T09:23:08.232Z,75.93
2018-09-28T09:24:08.268Z,75.93
2018-09-28T09:25:08.275Z,75.98
2018-09-28T09:26:08.300Z,77.04
2018-09-28T09:27:08.316Z,77.42
2018-09-28T09:28:08.335Z,77.61
2018-09-28T09:29:08.364Z,76.02
2018-09-28T09:30:08.369Z,75.64
2018-09-28T09:31:08.380Z,75.45
2018-09-28T09:32:08.400Z,74.97
2018-09-28T09:33:08.445Z,74.97
2018-09-28T09:34:08.434Z,74.82
2018-09-28T09:35:08.460Z,74.72
2018-09-28T09:36:08.488Z,73.24
2018-09-28T09:37:08.497Z,72.86
2018-09-28T09:38:08.513Z,73.15
2018-09-28T09:39:08.534Z,72.71
2018-09-28T09:40:08.556Z,72.61
2018-09-28T09:41:08.560Z,71.81
2018-09-28T09:42:08.583Z,70.85
2018-09-28T09:43:08.601Z,71.66
2018-09-28T09:44:08.621Z,71.56
2018-09-28T09:45:08.637Z,71.27
2018-09-28T09:46:08.658Z,72.00
2018-09-28T09:47:08.674Z,70.70
2018-09-28T09:48:08.701Z,71.37
2018-09-28T09:49:08.712Z,70.21
2018-09-28T09:50:08.732Z,70.25
2018-09-28T09:51:08.780Z,68.72
2018-09-28T09:52:08.797Z,68.24
2018-09-28T09:53:08.801Z,67.15
2018-09-28T09:54:08.811Z,68.21
2018-09-28T09:55:08.830Z,68.46
2018-09-28T09:56:08.848Z,69.42
2018-09-28T09:57:08.859Z,68.40
2018-09-28T09:58:08.942Z,67.44
2018-09-28T09:59:08.905Z,68.05
2018-09-28T10:00:08.917Z,67.28
2018-09-28T10:01:08.951Z,67.41
2018-09-28T10:02:08.995Z,66.93
2018-09-28T10:03:08.975Z,66.26
2018-09-28T10:04:09.004Z,65.39
2018-09-28T10:05:09.016Z,65.65
2018-09-28T10:06:09.030Z,66.22
2018-09-28T10:07:09.051Z,66.16
2018-09-28T10:08:09.075Z,65.39
2018-09-28T10:09:09.082Z,64.98
2018-09-28T10:10:09.104Z,65.55
2018-09-28T10:11:09.124Z,65.52
2018-09-28T10:12:09.196Z,66.89
2018-09-28T10:13:09.179Z,64.40
2018-09-28T10:14:09.177Z,63.35
2018-09-28T10:15:09.198Z,64.43
2018-09-28T10:16:09.214Z,64.05
2018-09-28T10:17:09.234Z,64.15
2018-09-28T10:18:09.254Z,63.00
2018-09-28T10:19:09.311Z,63.48
2018-09-28T10:20:09.298Z,62.59
2018-09-28T10:21:09.318Z,61.75
2018-09-28T10:22:09.331Z,61.91
2018-09-28T10:23:09.353Z,61.56
2018-09-28T10:24:09.379Z,61.46
2018-09-28T10:25:09.383Z,60.99
2018-09-28T10:26:09.405Z,60.22
2018-09-28T10:27:09.429Z,60.70
2018-09-28T10:28:09.448Z,60.86
2018-09-28T10:29:09.473Z,61.08
2018-09-28T10:30:09.491Z,60.53
2018-09-28T10:31:09.499Z,60.31
2018-09-28T10:32:09.525Z,61.37
2018-09-28T10:33:09.533Z,60.53
2018-09-28T10:34:09.568Z,59.67
2018-09-28T10:35:09.582Z,59.22
2018-09-28T10:36:09.626Z,59.19
2018-09-28T10:37:09.606Z,59.77
2018-09-28T10:38:09.631Z,59.96
2018-09-28T10:39:09.690Z,60.25
2018-09-28T10:40:09.720Z,60.53
2018-09-28T10:41:09.731Z,59.96
2018-09-28T10:42:09.702Z,59.19
2018-09-28T10:43:09.732Z,59.48
2018-09-28T10:44:09.742Z,60.15
2018-09-28T10:45:09.804Z,60.44
2018-09-28T10:46:09.788Z,60.96
2018-09-28T10:47:09.799Z,62.04
2018-09-28T10:48:09.817Z,61.85
2018-09-28T10:49:09.847Z,62.52
2018-09-28T10:50:09.861Z,61.75
2018-09-28T10:51:09.924Z,62.62
2018-09-28T10:52:10.044Z,62.26
2018-09-28T10:53:09.930Z,61.91
2018-09-28T10:54:09.929Z,61.02
2018-09-28T10:55:09.953Z,59.99
2018-09-28T10:56:09.975Z,59.80
2018-09-28T10:57:10.028Z,58.26
2018-09-28T10:58:10.012Z,58.07
2018-09-28T10:59:10.036Z,58.26
2018-09-28T11:00:10.050Z,58.62
2018-09-28T11:01:10.076Z,58.26
2018-09-28T11:02:10.087Z,58.42
2018-09-28T11:03:10.120Z,60.63
2018-09-28T11:04:10.127Z,60.53
2018-09-28T11:05:10.144Z,59.19
2018-09-28T11:06:10.164Z,58.55
2018-09-28T11:07:10.187Z,58.64
2018-09-28T11:08:10.200Z,57.68
2018-09-28T11:09:10.287Z,57.40
2018-09-28T11:10:10.296Z,56.56
2018-09-28T11:11:10.259Z,56.76
2018-09-28T11:12:10.279Z,56.70
2018-09-28T11:13:10.297Z,57.46
2018-09-28T11:14:10.313Z,57.65
2018-09-28T11:15:10.369Z,57.97
2018-09-28T11:16:10.381Z,58.04
2018-09-28T11:17:10.378Z,58.04
2018-09-28T11:18:10.395Z,56.98
2018-09-28T11:19:10.409Z,57.11
2018-09-28T11:20:10.436Z,56.53
2018-09-28T11:21:10.472Z,57.65
2018-09-28T11:22:10.470Z,58.45
2018-09-28T11:23:10.525Z,58.94
2018-09-28T11:24:10.508Z,58.07
2018-09-28T11:25:10.527Z,57.65
2018-09-28T11:26:10.551Z,57.40
2018-09-28T11:27:10.592Z,57.37
2018-09-28T11:28:10.590Z,56.27
2018-09-28T11:29:10.609Z,55.60
2018-09-28T11:30:10.628Z,55.79
2018-09-28T11:31:10.659Z,56.44
2018-09-28T11:32:10.664Z,57.62
2018-09-28T11:33:10.794Z,57.04
2018-09-28T11:34:10.722Z,56.37
2018-09-28T11:35:10.725Z,56.18
2018-09-28T11:36:10.744Z,55.69
2018-09-28T11:37:10.766Z,55.82
2018-09-28T11:38:10.780Z,55.34
2018-09-28T11:39:10.863Z,55.82
2018-09-28T11:40:10.833Z,55.44
2018-09-28T11:41:10.869Z,55.60
2018-09-28T11:42:10.864Z,55.73
2018-09-28T11:43:10.938Z,54.96
2018-09-28T11:44:10.896Z,54.77
2018-09-28T11:45:10.932Z,55.99
2018-09-28T11:46:10.936Z,55.83
2018-09-28T11:47:10.963Z,57.40
2018-09-28T11:48:10.985Z,56.66
2018-09-28T11:49:11.055Z,56.85
2018-09-28T11:50:11.021Z,56.59
2018-09-28T11:51:11.047Z,56.08
2018-09-28T11:52:11.055Z,56.95
2018-09-28T11:53:11.070Z,57.62
2018-09-28T11:54:11.106Z,56.85
2018-09-28T11:55:11.109Z,56.85
2018-09-28T11:56:11.140Z,56.56
2018-09-28T11:57:11.187Z,56.95
2018-09-28T11:58:11.177Z,56.37
2018-09-28T11:59:11.198Z,56.37
2018-09-28T12:00:11.220Z,57.01
2018-09-28T12:01:11.231Z,57.40
2018-09-28T12:02:11.249Z,56.56
2018-09-28T12:03:11.307Z,56.37
2018-09-28T12:04:11.292Z,55.69
2018-09-28T12:05:11.379Z,56.34
2018-09-28T12:06:11.364Z,55.69
2018-09-28T12:07:11.401Z,55.53
2018-09-28T12:08:11.387Z,55.32
2018-09-28T12:09:11.450Z,55.38
2018-09-28T12:10:11.436Z,55.89
2018-09-28T12:11:11.470Z,55.51
2018-09-28T12:12:11.468Z,55.89
2018-09-28T12:13:11.483Z,55.41
2018-09-28T12:14:11.498Z,54.35
2018-09-28T12:15:11.540Z,54.09
2018-09-28T12:16:11.540Z,54.28
2018-09-28T12:17:11.563Z,54.89
2018-09-28T12:18:11.618Z,54.12
2018-09-28T12:19:11.586Z,53.16
2018-09-28T12:20:11.650Z,52.80
2018-09-28T12:21:11.629Z,51.74
2018-09-28T12:22:11.644Z,51.53
2018-09-28T12:23:11.671Z,51.81
2018-09-28T12:24:11.680Z,50.68
2018-09-28T12:25:11.718Z,50.27
2018-09-28T12:26:11.719Z,51.04
2018-09-28T12:27:11.750Z,51.59
2018-09-28T12:28:11.763Z,51.31
2018-09-28T12:29:11.798Z,50.56
2018-09-28T12:30:11.834Z,50.68
2018-09-28T12:31:11.817Z,50.30
2018-09-28T12:32:11.832Z,49.82
2018-09-28T12:33:11.856Z,49.43
2018-09-28T12:34:11.875Z,49.12
2018-09-28T12:35:11.902Z,49.43
2018-09-28T12:36:11.921Z,48.85
2018-09-28T12:37:11.933Z,48.95
2018-09-28T12:38:11.952Z,49.43
2018-09-28T12:39:12.044Z,49.02
2018-09-28T12:40:11.995Z,48.74
2018-09-28T12:41:12.008Z,49.38
2018-09-28T12:42:12.047Z,49.51
2018-09-28T12:43:12.057Z,49.51
2018-09-28T12:44:12.088Z,49.51
2018-09-28T12:45:12.175Z,49.60
2018-09-28T12:46:12.107Z,49.43
2018-09-28T12:47:12.131Z,49.05
2018-09-28T12:48:12.149Z,49.43
2018-09-28T12:49:12.190Z,49.79
2018-09-28T12:50:12.221Z,49.99
2018-09-28T12:51:12.249Z,50.18
2018-09-28T12:52:12.234Z,50.44
2018-09-28T12:53:12.257Z,51.76